Time;durP1;ratioP1;P1;durP2;ratioP2;P2;SDS_P1;SDS_P2;PMS_P1;PMS_P2;Temp;Humidity;BMP_temperature;BMP_pressure;BME280_temperature;BME280_humidity;BME280_pressure;Samples;Min_cycle;Max_cycle;Signal;HPM_P1;HPM_P2
2024/04/23 00:01:26;;;;;;;5.90;4.65;;;5.90;80.60;;;;;;5419950;26;20266;-75
2024/04/23 00:03:52;;;;;;;6.53;4.85;;;5.90;80.40;;;;;;5419972;26;20275;-75
2024/04/23 00:06:23;;;;;;;7.07;6.00;;;5.90;80.40;;;;;;5420014;26;20221;-76
2024/04/23 00:08:49;;;;;;;6.40;4.88;;;5.90;80.70;;;;;;5419719;26;20458;-75
2024/04/23 00:11:17;;;;;;;6.20;4.50;;;5.90;80.40;;;;;;5418766;26;20282;-75
2024/04/23 00:13:43;;;;;;;6.50;5.10;;;5.90;80.50;;;;;;5419199;26;20816;-75
2024/04/23 00:16:12;;;;;;;5.80;4.10;;;5.90;80.20;;;;;;5419810;26;20574;-75
2024/04/23 00:18:38;;;;;;;10.27;6.43;;;5.90;80.30;;;;;;5419467;26;20251;-75
2024/04/23 00:21:07;;;;;;;10.30;5.80;;;5.90;80.50;;;;;;5419445;26;20598;-76
2024/04/23 00:23:38;;;;;;;7.32;5.20;;;5.90;80.50;;;;;;5419242;26;20783;-75
2024/04/23 00:26:07;;;;;;;6.78;5.43;;;5.80;80.80;;;;;;5418380;26;20232;-77
2024/04/23 00:28:33;;;;;;;5.90;4.82;;;5.90;80.90;;;;;;5419412;26;20537;-75
2024/04/23 00:31:01;;;;;;;6.37;5.00;;;5.80;81.10;;;;;;5419238;26;20220;-75
2024/04/23 00:33:27;;;;;;;5.82;4.80;;;5.80;80.90;;;;;;5419595;26;20438;-76
2024/04/23 00:35:56;;;;;;;10.00;6.37;;;5.80;81.40;;;;;;5419626;26;20220;-76
2024/04/23 00:38:22;;;;;;;7.03;5.30;;;5.80;81.00;;;;;;5419415;26;20963;-75
2024/04/23 00:40:53;;;;;;;6.73;5.10;;;5.80;81.30;;;;;;5416666;26;20228;-76
2024/04/23 00:43:21;;;;;;;7.88;5.35;;;5.80;81.10;;;;;;5419355;26;20454;-76
2024/04/23 00:45:55;;;;;;;7.57;4.95;;;5.80;81.00;;;;;;5417755;26;20212;-76
2024/04/23 00:48:21;;;;;;;6.80;4.88;;;5.80;80.90;;;;;;5419305;26;20216;-76
2024/04/23 00:50:50;;;;;;;7.95;5.75;;;5.70;80.30;;;;;;5417866;26;20262;-75
2024/04/23 00:53:16;;;;;;;8.10;6.05;;;5.70;80.30;;;;;;5419481;26;20247;-76
2024/04/23 00:55:46;;;;;;;6.50;5.20;;;5.70;80.40;;;;;;5419267;26;20220;-76
2024/04/23 00:58:15;;;;;;;6.03;4.80;;;5.60;80.20;;;;;;5419146;26;20546;-76
2024/04/23 01:00:44;;;;;;;6.63;4.97;;;5.60;79.90;;;;;;5420030;26;20239;-77
2024/04/23 01:03:10;;;;;;;11.55;6.90;;;5.70;79.90;;;;;;5419081;26;20247;-78
2024/04/23 01:05:38;;;;;;;7.80;5.40;;;5.60;79.60;;;;;;5383665;26;20217;-75
2024/04/23 01:08:05;;;;;;;7.30;5.25;;;5.60;79.40;;;;;;5383622;26;20492;-76
2024/04/23 01:10:33;;;;;;;6.60;4.97;;;5.50;79.20;;;;;;5383538;26;20221;-75
2024/04/23 01:12:59;;;;;;;8.70;5.90;;;5.50;79.50;;;;;;5383018;26;20264;-75
2024/04/23 01:15:31;;;;;;;7.53;5.20;;;5.50;79.60;;;;;;5405869;26;20284;-76
2024/04/23 01:18:02;;;;;;;7.60;5.90;;;5.50;79.70;;;;;;5419001;26;20458;-76
2024/04/23 01:20:32;;;;;;;8.10;5.80;;;5.50;79.80;;;;;;5418949;26;20321;-75
2024/04/23 01:23:02;;;;;;;7.70;5.55;;;5.50;79.80;;;;;;5417962;26;20275;-76
2024/04/23 01:25:32;;;;;;;7.50;5.85;;;5.50;79.80;;;;;;5418736;26;20273;-75
2024/04/23 01:28:00;;;;;;;6.32;5.40;;;5.40;80.40;;;;;;5418736;26;20217;-75
2024/04/23 01:30:29;;;;;;;9.05;6.18;;;5.40;81.10;;;;;;5418849;26;20221;-75
2024/04/23 01:32:57;;;;;;;7.18;5.25;;;5.40;80.90;;;;;;5419156;26;20220;-76
2024/04/23 01:35:26;;;;;;;7.10;5.47;;;5.40;81.10;;;;;;5418440;26;20243;-75
2024/04/23 01:37:54;;;;;;;9.30;6.28;;;5.40;81.00;;;;;;5417244;26;20792;-79
2024/04/23 01:40:25;;;;;;;7.72;4.90;;;5.40;80.60;;;;;;5418303;26;20570;-74
2024/04/23 01:42:52;;;;;;;8.60;6.38;;;5.40;81.10;;;;;;5418787;26;20204;-76
2024/04/23 01:45:25;;;;;;;9.55;6.47;;;5.40;81.20;;;;;;5418076;26;20224;-76
2024/04/23 01:47:52;;;;;;;7.00;6.20;;;5.40;81.20;;;;;;5417793;26;20541;-76
2024/04/23 01:50:20;;;;;;;7.45;5.55;;;5.40;81.50;;;;;;5417145;26;20725;-75
2024/04/23 01:52:46;;;;;;;7.45;5.22;;;5.40;81.70;;;;;;5417791;26;20212;-75
2024/04/23 01:55:18;;;;;;;7.00;5.68;;;5.40;81.70;;;;;;5417046;26;20270;-76
2024/04/23 01:57:44;;;;;;;6.70;5.35;;;5.40;81.50;;;;;;5417563;26;20732;-75
2024/04/23 02:00:16;;;;;;;10.20;6.93;;;5.40;81.10;;;;;;5417606;26;20599;-75
2024/04/23 02:02:46;;;;;;;6.75;5.55;;;5.40;81.30;;;;;;5417999;26;20753;-75
2024/04/23 02:05:17;;;;;;;8.68;6.82;;;5.40;81.10;;;;;;5416737;26;20228;-75
2024/04/23 02:07:44;;;;;;;7.30;6.28;;;5.40;81.60;;;;;;5417980;26;20220;-76
2024/04/23 02:10:13;;;;;;;8.05;6.47;;;5.40;81.50;;;;;;5417580;26;20220;-75
2024/04/23 02:12:39;;;;;;;7.70;5.93;;;5.40;81.00;;;;;;5417433;26;20220;-75
2024/04/23 02:15:08;;;;;;;9.15;6.57;;;5.40;81.00;;;;;;5417330;26;20236;-76
2024/04/23 02:17:35;;;;;;;9.20;6.65;;;5.40;81.10;;;;;;5417557;26;20353;-75
2024/04/23 02:20:08;;;;;;;6.95;5.50;;;5.40;80.80;;;;;;5417442;26;20216;-76
2024/04/23 02:22:34;;;;;;;9.40;6.10;;;5.40;80.40;;;;;;5417505;26;20799;-75
2024/04/23 02:25:02;;;;;;;8.20;6.45;;;5.40;80.50;;;;;;5417353;26;20232;-75
2024/04/23 02:27:28;;;;;;;12.15;6.45;;;5.40;80.10;;;;;;5417526;26;20666;-76
2024/04/23 02:29:57;;;;;;;7.93;5.83;;;5.40;80.30;;;;;;5416405;26;20271;-76
2024/04/23 02:32:23;;;;;;;7.53;6.32;;;5.40;79.80;;;;;;5414009;26;20772;-76
2024/04/23 02:34:51;;;;;;;10.10;7.63;;;5.40;79.50;;;;;;5417093;26;20212;-75
2024/04/23 02:37:22;;;;;;;7.65;6.85;;;5.40;79.20;;;;;;5417244;26;20634;-75
2024/04/23 02:39:50;;;;;;;9.55;5.70;;;5.40;78.90;;;;;;5417469;26;20221;-75
2024/04/23 02:42:16;;;;;;;7.15;5.82;;;5.40;79.40;;;;;;5417375;26;20243;-75
2024/04/23 02:44:45;;;;;;;9.50;6.80;;;5.40;79.10;;;;;;5417017;26;20220;-75
2024/04/23 02:47:11;;;;;;;8.32;5.88;;;5.40;79.20;;;;;;5416522;26;20224;-75
2024/04/23 02:49:39;;;;;;;7.75;6.38;;;5.40;79.50;;;;;;5416865;26;20224;-75
2024/04/23 02:52:05;;;;;;;7.35;6.18;;;5.30;79.50;;;;;;5416734;26;20678;-77
2024/04/23 02:54:36;;;;;;;9.10;7.07;;;5.30;79.50;;;;;;5415967;26;20262;-75
2024/04/23 02:57:02;;;;;;;9.75;7.20;;;5.30;79.90;;;;;;5416903;26;20522;-75
2024/04/23 02:59:31;;;;;;;8.93;6.90;;;5.30;80.10;;;;;;5417045;26;20224;-75
2024/04/23 03:02:01;;;;;;;8.90;6.13;;;5.30;80.30;;;;;;5415655;26;20299;-75
2024/04/23 03:04:30;;;;;;;9.38;7.00;;;5.30;80.00;;;;;;5416871;26;20709;-75
2024/04/23 03:06:56;;;;;;;9.68;7.30;;;5.40;80.50;;;;;;5415864;26;20217;-76
2024/04/23 03:09:24;;;;;;;8.40;6.50;;;5.30;80.20;;;;;;5416158;26;20329;-75
2024/04/23 03:11:54;;;;;;;9.02;7.32;;;5.30;80.30;;;;;;5416803;26;20454;-76
2024/04/23 03:14:23;;;;;;;7.97;6.65;;;5.30;80.20;;;;;;5416629;26;20276;-76
2024/04/23 03:16:48;;;;;;;8.27;7.35;;;5.40;80.50;;;;;;5415430;26;20307;-76
2024/04/23 03:19:17;;;;;;;9.87;7.23;;;5.40;80.60;;;;;;5416602;26;20258;-75
2024/04/23 03:21:51;;;;;;;8.45;6.28;;;5.40;80.40;;;;;;5416432;26;20502;-75
2024/04/23 03:24:19;;;;;;;9.10;7.68;;;5.40;80.10;;;;;;5415999;26;20236;-76
2024/04/23 03:26:46;;;;;;;10.30;7.47;;;5.40;80.50;;;;;;5416530;26;20217;-76
2024/04/23 03:29:17;;;;;;;8.10;6.38;;;5.40;80.70;;;;;;5416323;26;20320;-76
2024/04/23 03:31:43;;;;;;;8.88;6.72;;;5.40;80.40;;;;;;5416233;26;20280;-76
2024/04/23 03:34:12;;;;;;;9.30;7.00;;;5.40;80.30;;;;;;5416271;26;20220;-74
2024/04/23 03:36:38;;;;;;;9.70;7.20;;;5.30;80.10;;;;;;5416289;26;20216;-74
2024/04/23 03:39:07;;;;;;;9.57;7.05;;;5.40;80.10;;;;;;5415367;26;20233;-74
2024/04/23 03:41:36;;;;;;;9.75;7.40;;;5.40;79.80;;;;;;5416681;26;20544;-75
2024/04/23 03:44:04;;;;;;;9.48;6.45;;;5.40;80.00;;;;;;5416143;26;20583;-74
2024/04/23 03:46:35;;;;;;;9.02;7.18;;;5.30;79.50;;;;;;5415965;26;20548;-75
2024/04/23 03:49:04;;;;;;;9.25;6.50;;;5.30;79.90;;;;;;5416214;26;20220;-74
2024/04/23 03:51:30;;;;;;;10.43;7.65;;;5.30;79.90;;;;;;5414935;26;20228;-74
2024/04/23 03:53:58;;;;;;;11.80;8.30;;;5.30;80.30;;;;;;5415935;26;20220;-76
2024/04/23 03:56:24;;;;;;;8.73;7.10;;;5.30;80.20;;;;;;5414637;26;20581;-74
2024/04/23 03:58:53;;;;;;;9.33;7.50;;;5.30;80.40;;;;;;5415776;26;20283;-77
2024/04/23 04:01:19;;;;;;;8.60;6.93;;;5.30;80.10;;;;;;5416045;26;20581;-76
2024/04/23 04:06:35;;;;;;;7.70;6.38;;;5.30;79.90;;;;;;5418679;26;20309;-74
2024/04/23 04:09:03;;;;;;;11.95;6.78;;;5.30;79.90;;;;;;5415434;26;20351;-73
2024/04/23 04:11:32;;;;;;;9.70;7.55;;;5.30;79.90;;;;;;5414415;26;20233;-75
2024/04/23 04:14:01;;;;;;;11.02;7.63;;;5.20;80.10;;;;;;5415533;26;20682;-76
2024/04/23 04:16:28;;;;;;;10.88;8.30;;;5.20;80.70;;;;;;5415437;26;20216;-75
2024/04/23 04:18:59;;;;;;;13.95;8.20;;;5.30;80.70;;;;;;5416479;26;20264;-75
2024/04/23 04:21:25;;;;;;;11.27;7.93;;;5.30;80.90;;;;;;5419156;26;20595;-75
2024/04/23 04:23:54;;;;;;;10.13;8.93;;;5.20;81.20;;;;;;5418965;26;20220;-74
2024/04/23 04:26:20;;;;;;;10.52;8.70;;;5.20;80.90;;;;;;5418116;26;20462;-74
2024/04/23 04:28:49;;;;;;;12.30;8.48;;;5.20;81.00;;;;;;5418954;26;20537;-76
2024/04/23 04:31:15;;;;;;;9.02;7.70;;;5.20;81.20;;;;;;5418970;26;20217;-75
2024/04/23 04:33:43;;;;;;;10.70;8.60;;;5.20;81.20;;;;;;5418844;26;20254;-77
2024/04/23 04:36:12;;;;;;;10.00;8.15;;;5.20;80.70;;;;;;5418936;26;20748;-75
2024/04/23 04:38:41;;;;;;;11.77;7.18;;;5.20;80.80;;;;;;5418851;26;20341;-76
2024/04/23 04:41:07;;;;;;;9.70;7.70;;;5.20;81.60;;;;;;5418585;26;20229;-76
2024/04/23 04:43:35;;;;;;;9.75;7.63;;;5.20;81.60;;;;;;5418918;26;20321;-76
2024/04/23 04:46:01;;;;;;;11.48;8.00;;;5.20;81.60;;;;;;5417131;26;20229;-75
2024/04/23 04:48:30;;;;;;;10.88;8.30;;;5.20;81.50;;;;;;5419369;26;20263;-75
2024/04/23 04:50:57;;;;;;;10.35;7.68;;;5.20;81.50;;;;;;5418939;26;20216;-76
2024/04/23 04:53:28;;;;;;;10.70;7.38;;;5.20;81.60;;;;;;5418542;26;20545;-76
2024/04/23 04:55:54;;;;;;;9.35;8.30;;;5.20;82.00;;;;;;5418518;26;20217;-76
2024/04/23 04:58:23;;;;;;;12.45;7.93;;;5.20;82.20;;;;;;5418962;26;20232;-75
2024/04/23 05:00:50;;;;;;;9.55;7.45;;;5.20;81.90;;;;;;5416963;26;20271;-76
2024/04/23 05:03:19;;;;;;;10.07;8.60;;;5.20;81.90;;;;;;5417916;26;20258;-75
2024/04/23 05:05:45;;;;;;;11.98;8.90;;;5.20;82.00;;;;;;5418397;26;20274;-74
2024/04/23 05:08:14;;;;;;;11.57;8.45;;;5.20;82.00;;;;;;5418345;26;20686;-76
2024/04/23 05:10:42;;;;;;;11.68;8.20;;;5.20;81.90;;;;;;5418196;26;20228;-77
2024/04/23 05:13:11;;;;;;;10.32;7.60;;;5.20;81.60;;;;;;5417903;26;20292;-77
2024/04/23 05:15:37;;;;;;;11.15;8.85;;;5.20;81.60;;;;;;5417888;26;20720;-76
2024/04/23 05:18:06;;;;;;;10.43;7.72;;;5.20;81.20;;;;;;5418514;26;20228;-76
2024/04/23 05:20:32;;;;;;;11.80;9.32;;;5.20;80.80;;;;;;5417091;26;20718;-77
2024/04/23 05:23:02;;;;;;;12.33;9.73;;;5.20;80.10;;;;;;5418317;26;20255;-77
2024/04/23 05:25:28;;;;;;;10.88;9.05;;;5.20;80.20;;;;;;5418094;26;20442;-77
2024/04/23 05:27:59;;;;;;;11.23;8.63;;;5.20;80.30;;;;;;5416540;26;20224;-77
2024/04/23 05:33:13;;;;;;;13.63;9.60;;;5.20;80.80;;;;;;5420637;26;20313;-77
2024/04/23 05:35:43;;;;;;;11.95;8.25;;;5.20;80.60;;;;;;5417692;26;20229;-75
2024/04/23 05:38:11;;;;;;;11.07;9.05;;;5.20;80.50;;;;;;5418427;26;20377;-76
2024/04/23 05:40:40;;;;;;;13.20;8.77;;;5.20;80.50;;;;;;5417842;26;20702;-76
2024/04/23 05:43:11;;;;;;;12.05;8.80;;;5.20;80.70;;;;;;5416419;26;20235;-76
2024/04/23 05:45:40;;;;;;;10.55;8.23;;;5.20;80.60;;;;;;5417676;26;20562;-76
2024/04/23 05:48:46;;;;;;;14.77;9.43;;;5.10;80.40;;;;;;5418023;26;20213;-76
2024/04/23 05:51:52;;;;;;;17.50;10.55;;;5.10;80.80;;;;;;5413995;26;20279;-75
2024/04/23 05:54:57;;;;;;;12.25;8.15;;;5.20;80.80;;;;;;5413921;26;20224;-76
2024/04/23 05:57:26;;;;;;;17.35;9.48;;;5.10;81.00;;;;;;5417185;26;20266;-76
2024/04/23 05:59:54;;;;;;;12.52;8.95;;;5.10;81.20;;;;;;5417997;26;20217;-76
2024/04/23 06:02:25;;;;;;;12.55;9.68;;;5.20;81.30;;;;;;5411507;26;20269;-79
2024/04/23 06:04:51;;;;;;;10.57;9.23;;;5.10;81.50;;;;;;5416399;26;20252;-75
2024/04/23 06:07:21;;;;;;;12.93;9.75;;;5.20;81.80;;;;;;5416453;26;20553;-76
2024/04/23 06:09:47;;;;;;;18.10;9.32;;;5.20;82.00;;;;;;5415882;26;20302;-76
2024/04/23 06:12:16;;;;;;;12.05;9.30;;;5.20;81.90;;;;;;5416370;26;20232;-76
2024/04/23 06:14:43;;;;;;;12.82;10.02;;;5.20;81.90;;;;;;5416107;26;20650;-75
2024/04/23 06:17:21;;;;;;;10.27;8.60;;;5.30;82.00;;;;;;5410699;26;20236;-76
2024/04/23 06:19:52;;;;;;;12.80;9.77;;;5.30;82.30;;;;;;5416806;26;20216;-77
2024/04/23 06:22:19;;;;;;;14.88;11.05;;;5.30;82.50;;;;;;5415644;26;20671;-77
2024/04/23 06:24:50;;;;;;;12.40;9.90;;;5.30;82.90;;;;;;5415251;26;20807;-76
2024/04/23 06:27:17;;;;;;;12.82;9.93;;;5.40;82.90;;;;;;5415538;26;20224;-77
2024/04/23 06:29:46;;;;;;;12.20;8.82;;;5.40;83.00;;;;;;5414898;26;20266;-75
2024/04/23 06:32:13;;;;;;;16.13;10.18;;;5.40;83.10;;;;;;5415366;26;20232;-77
2024/04/23 06:34:44;;;;;;;14.15;10.02;;;5.50;82.70;;;;;;5385562;26;20563;-74
2024/04/23 06:37:10;;;;;;;17.40;11.10;;;5.50;82.90;;;;;;5415704;26;20229;-76
2024/04/23 06:39:40;;;;;;;13.27;10.57;;;5.50;82.60;;;;;;5412927;26;20318;-76
2024/04/23 06:42:06;;;;;;;17.38;10.50;;;5.50;82.70;;;;;;5394256;26;20221;-79
2024/04/23 06:44:35;;;;;;;17.52;9.60;;;5.60;82.70;;;;;;5415183;26;20276;-75
2024/04/23 06:47:01;;;;;;;10.52;8.65;;;5.60;83.00;;;;;;5415907;26;20728;-75
2024/04/23 06:49:30;;;;;;;13.18;9.60;;;5.60;82.40;;;;;;5416474;26;20656;-76
2024/04/23 06:51:59;;;;;;;11.07;9.15;;;5.60;82.50;;;;;;5416084;26;20232;-76
2024/04/23 06:54:28;;;;;;;13.27;8.35;;;5.60;82.40;;;;;;5413341;26;20224;-74
2024/04/23 06:56:54;;;;;;;11.05;9.25;;;5.60;81.80;;;;;;5416609;26;20228;-76
2024/04/23 06:59:23;;;;;;;15.57;10.55;;;5.70;82.10;;;;;;5416974;26;20262;-76
2024/04/23 07:01:49;;;;;;;12.93;8.63;;;5.70;83.00;;;;;;5417298;26;20220;-74
2024/04/23 07:04:20;;;;;;;14.48;10.15;;;5.70;83.40;;;;;;5416236;26;20220;-75
2024/04/23 07:06:48;;;;;;;12.85;10.60;;;5.70;83.10;;;;;;5415967;26;20266;-76
2024/04/23 07:09:20;;;;;;;14.02;11.43;;;5.80;83.40;;;;;;5415605;26;20259;-76
2024/04/23 07:11:49;;;;;;;12.90;9.05;;;5.80;83.00;;;;;;5416911;26;20216;-76
2024/04/23 07:14:22;;;;;;;11.98;9.52;;;5.80;83.90;;;;;;5416475;26;20563;-76
2024/04/23 07:16:51;;;;;;;12.00;9.70;;;5.80;83.80;;;;;;5416939;26;20536;-76
2024/04/23 07:19:21;;;;;;;11.32;8.38;;;5.90;83.50;;;;;;5416782;26;20277;-75
2024/04/23 07:21:49;;;;;;;10.25;9.18;;;6.00;82.90;;;;;;5416299;26;20544;-75
2024/04/23 07:24:20;;;;;;;9.57;8.38;;;6.00;82.30;;;;;;5416243;26;20266;-76
2024/04/23 07:26:51;;;;;;;12.05;9.43;;;6.00;82.90;;;;;;5415668;26;20212;-76
2024/04/23 07:29:22;;;;;;;9.85;7.95;;;6.10;83.00;;;;;;5416001;26;20275;-77
2024/04/23 07:31:53;;;;;;;8.90;6.97;;;6.10;83.30;;;;;;5415971;26;20216;-76
2024/04/23 07:34:23;;;;;;;10.38;8.30;;;6.20;83.10;;;;;;5415942;26;20324;-76
2024/04/23 07:36:51;;;;;;;10.00;7.72;;;6.20;82.90;;;;;;5416039;26;20217;-77
2024/04/23 07:39:23;;;;;;;9.85;7.53;;;6.30;81.40;;;;;;5415859;26;20228;-75
2024/04/23 07:41:51;;;;;;;8.75;7.60;;;6.30;81.10;;;;;;5415932;26;20548;-75
2024/04/23 07:44:20;;;;;;;7.82;6.32;;;6.40;81.10;;;;;;5416015;26;20537;-75
2024/04/23 07:46:51;;;;;;;10.60;7.35;;;6.40;80.50;;;;;;5416114;26;20708;-76
2024/04/23 07:49:20;;;;;;;9.88;6.90;;;6.40;81.10;;;;;;5415659;26;20698;-75
2024/04/23 07:51:54;;;;;;;9.30;7.35;;;6.50;81.00;;;;;;5416193;26;20220;-75
2024/04/23 07:54:23;;;;;;;7.38;6.28;;;6.50;81.50;;;;;;5417229;26;20243;-75
2024/04/23 07:56:54;;;;;;;7.60;6.63;;;6.60;81.60;;;;;;5418924;26;20260;-76
2024/04/23 07:59:20;;;;;;;8.38;6.43;;;6.60;80.80;;;;;;5419340;26;20220;-75
2024/04/23 08:01:51;;;;;;;8.30;7.07;;;6.70;80.30;;;;;;5419253;26;20310;-74
2024/04/23 08:04:22;;;;;;;10.30;7.95;;;6.70;80.00;;;;;;5419656;26;20217;-76
2024/04/23 08:06:48;;;;;;;10.13;7.63;;;6.80;80.00;;;;;;5419379;26;20216;-75
2024/04/23 08:09:19;;;;;;;11.07;8.10;;;6.80;80.10;;;;;;5419012;26;20251;-75
2024/04/23 08:11:48;;;;;;;10.30;6.72;;;6.80;79.50;;;;;;5419131;26;20216;-78
2024/04/23 08:14:21;;;;;;;7.32;6.22;;;6.90;79.60;;;;;;5419068;26;20239;-75
2024/04/23 08:16:47;;;;;;;7.35;6.10;;;6.90;80.70;;;;;;5419913;26;20216;-75
2024/04/23 08:19:16;;;;;;;8.02;6.35;;;7.00;80.10;;;;;;5419275;26;20220;-75
2024/04/23 08:21:48;;;;;;;8.32;6.63;;;7.10;79.70;;;;;;5419131;26;20378;-75
2024/04/23 08:24:14;;;;;;;7.03;6.03;;;7.10;79.20;;;;;;5419164;26;20686;-75
2024/04/23 08:26:42;;;;;;;6.70;5.53;;;7.10;77.60;;;;;;5418930;26;20356;-76
2024/04/23 08:29:11;;;;;;;8.38;6.25;;;7.10;77.60;;;;;;5419383;26;20255;-76
2024/04/23 08:31:40;;;;;;;7.38;5.65;;;7.10;76.80;;;;;;5419109;26;20224;-75
2024/04/23 08:34:06;;;;;;;6.40;5.50;;;7.10;76.70;;;;;;5419099;26;20216;-77
2024/04/23 08:36:35;;;;;;;6.75;5.70;;;7.00;76.20;;;;;;5418910;26;20613;-76
2024/04/23 08:39:03;;;;;;;6.78;5.88;;;7.00;76.40;;;;;;5418971;26;20667;-75
2024/04/23 08:41:41;;;;;;;7.65;5.72;;;7.00;76.00;;;;;;5419230;26;20306;-76
2024/04/23 08:44:14;;;;;;;8.15;6.63;;;7.00;75.20;;;;;;5418715;26;20654;-77
2024/04/23 08:46:41;;;;;;;7.82;5.43;;;7.00;76.00;;;;;;5419393;26;20220;-75
2024/04/23 08:49:12;;;;;;;8.60;6.43;;;6.90;76.70;;;;;;5419021;26;20368;-75
2024/04/23 08:51:38;;;;;;;9.27;7.78;;;6.90;78.20;;;;;;5419032;26;20259;-76
2024/04/23 08:54:12;;;;;;;10.52;6.10;;;7.00;78.40;;;;;;5418223;26;20255;-77
2024/04/23 08:56:45;;;;;;;6.75;6.05;;;7.10;77.90;;;;;;5418410;26;20263;-75
2024/04/23 08:59:19;;;;;;;7.30;5.45;;;7.10;77.60;;;;;;5419029;26;20216;-75
2024/04/23 09:01:48;;;;;;;6.82;5.45;;;7.10;77.70;;;;;;5418984;26;20333;-76
2024/04/23 09:04:18;;;;;;;7.32;5.65;;;7.10;76.70;;;;;;5418434;26;20317;-75
2024/04/23 09:06:46;;;;;;;7.28;6.13;;;7.10;77.50;;;;;;5417564;26;20593;-76
2024/04/23 09:09:16;;;;;;;6.47;5.78;;;7.10;77.60;;;;;;5418880;26;20257;-76
2024/04/23 09:11:42;;;;;;;6.30;5.07;;;7.20;78.40;;;;;;5418504;26;20343;-75
2024/04/23 09:14:12;;;;;;;8.85;6.18;;;7.20;77.50;;;;;;5418705;26;20220;-76
2024/04/23 09:16:40;;;;;;;8.38;6.70;;;7.20;76.90;;;;;;5418368;26;20217;-76
2024/04/23 09:19:11;;;;;;;7.80;7.00;;;7.20;77.80;;;;;;5418557;26;20265;-75
2024/04/23 09:21:37;;;;;;;7.85;6.60;;;7.20;78.20;;;;;;5418487;26;20259;-76
2024/04/23 09:24:06;;;;;;;9.38;7.30;;;7.30;78.80;;;;;;5418211;26;20233;-76
2024/04/23 09:26:33;;;;;;;8.95;6.65;;;7.40;79.70;;;;;;5418217;26;20231;-76
2024/04/23 09:29:02;;;;;;;9.15;6.95;;;7.40;79.40;;;;;;5418134;26;20220;-77
2024/04/23 09:31:35;;;;;;;7.82;7.00;;;7.50;79.10;;;;;;5418674;26;20220;-75
2024/04/23 09:34:10;;;;;;;10.95;7.70;;;7.50;78.70;;;;;;5418411;26;20313;-76
2024/04/23 09:36:38;;;;;;;8.52;6.97;;;7.50;77.70;;;;;;5418123;26;20228;-76
2024/04/23 09:39:16;;;;;;;8.00;7.13;;;7.60;77.80;;;;;;5418033;26;20220;-75
2024/04/23 09:41:54;;;;;;;8.57;6.63;;;7.60;75.60;;;;;;5418054;26;20243;-77
2024/04/23 09:44:26;;;;;;;8.20;6.43;;;7.60;75.40;;;;;;5417770;26;20228;-75
2024/04/23 09:46:52;;;;;;;9.00;6.38;;;7.50;75.30;;;;;;5418181;26;20533;-75
2024/04/23 09:49:25;;;;;;;6.80;6.07;;;7.50;75.00;;;;;;5418252;26;20773;-76
2024/04/23 09:51:52;;;;;;;8.93;6.35;;;7.50;74.80;;;;;;5417966;26;20686;-76
2024/04/23 09:54:25;;;;;;;7.47;6.18;;;7.40;75.20;;;;;;5417943;26;20216;-76
2024/04/23 09:57:01;;;;;;;7.30;6.00;;;7.40;75.00;;;;;;5417529;26;20236;-76
2024/04/23 09:59:30;;;;;;;6.65;5.97;;;7.40;76.00;;;;;;5418160;26;20737;-76
2024/04/23 10:01:59;;;;;;;7.88;7.07;;;7.40;76.90;;;;;;5417900;26;20554;-77
2024/04/23 10:04:32;;;;;;;8.25;6.68;;;7.40;77.40;;;;;;5417752;26;20220;-75
2024/04/23 10:07:08;;;;;;;7.47;6.65;;;7.50;78.00;;;;;;5417612;26;20294;-76
2024/04/23 10:09:39;;;;;;;7.68;5.88;;;7.50;78.30;;;;;;5417833;26;20535;-76
2024/04/23 10:12:08;;;;;;;6.70;5.57;;;7.60;77.80;;;;;;5418287;26;20326;-76
2024/04/23 10:14:45;;;;;;;6.68;5.68;;;7.60;77.40;;;;;;5417400;26;20216;-75
2024/04/23 10:17:17;;;;;;;6.28;5.63;;;7.70;76.60;;;;;;5417964;26;20637;-76
2024/04/23 10:19:50;;;;;;;7.72;6.20;;;7.70;75.70;;;;;;5417672;26;20600;-76
2024/04/23 10:22:17;;;;;;;7.65;6.25;;;7.70;75.70;;;;;;5417874;26;20247;-76
2024/04/23 10:24:46;;;;;;;6.80;5.43;;;7.70;76.10;;;;;;5417537;26;20545;-76
2024/04/23 10:27:12;;;;;;;6.05;5.13;;;7.70;74.10;;;;;;5417533;26;20257;-75
2024/04/23 10:29:45;;;;;;;7.30;6.53;;;7.70;72.80;;;;;;5417535;26;20307;-76
2024/04/23 10:32:12;;;;;;;6.07;4.93;;;7.70;73.60;;;;;;5417492;26;20749;-76
2024/04/23 10:34:44;;;;;;;5.93;4.90;;;7.70;73.40;;;;;;5417691;26;20224;-76
2024/04/23 10:37:15;;;;;;;7.13;6.22;;;7.70;72.60;;;;;;5417330;26;20262;-76
2024/04/23 10:39:44;;;;;;;6.28;5.63;;;7.60;73.00;;;;;;5417147;26;20301;-76
2024/04/23 10:42:14;;;;;;;6.35;5.15;;;7.60;72.70;;;;;;5417153;26;20217;-75
2024/04/23 10:44:46;;;;;;;5.38;4.72;;;7.60;72.00;;;;;;5417391;26;20220;-76
2024/04/23 10:47:14;;;;;;;6.85;6.00;;;7.70;71.90;;;;;;5417464;26;20744;-74
2024/04/23 10:49:43;;;;;;;6.65;5.50;;;7.70;71.10;;;;;;5417088;26;20221;-74
2024/04/23 10:52:12;;;;;;;5.25;4.75;;;7.70;72.60;;;;;;5417050;26;20216;-75
2024/04/23 10:54:43;;;;;;;6.10;4.93;;;7.70;70.60;;;;;;5417525;26;20212;-76
2024/04/23 10:57:13;;;;;;;6.65;5.70;;;7.60;69.70;;;;;;5416932;26;20275;-76
2024/04/23 10:59:44;;;;;;;6.35;5.75;;;7.60;70.60;;;;;;5417485;26;20335;-76
2024/04/23 11:02:11;;;;;;;5.55;4.82;;;7.50;72.10;;;;;;5416959;26;20255;-75
2024/04/23 11:04:47;;;;;;;6.10;5.50;;;7.50;71.00;;;;;;5417056;26;20714;-75
2024/04/23 11:07:27;;;;;;;6.63;5.43;;;7.50;71.40;;;;;;5417118;26;20262;-75
2024/04/23 11:09:57;;;;;;;7.13;5.65;;;7.60;72.00;;;;;;5415648;26;20456;-76
2024/04/23 11:12:29;;;;;;;6.75;6.05;;;7.50;72.30;;;;;;5417242;26;20725;-76
2024/04/23 11:14:56;;;;;;;7.30;5.85;;;7.50;73.10;;;;;;5416399;26;20867;-76
2024/04/23 11:17:25;;;;;;;7.20;5.70;;;7.50;72.40;;;;;;5416943;26;20329;-75
2024/04/23 11:19:52;;;;;;;5.85;5.25;;;7.50;71.90;;;;;;5416705;26;20701;-76
2024/04/23 11:22:37;;;;;;;6.78;5.97;;;7.40;71.30;;;;;;5416622;26;20536;-75
2024/04/23 11:25:04;;;;;;;7.30;6.20;;;7.40;71.40;;;;;;5416392;26;20272;-74
2024/04/23 11:27:35;;;;;;;7.70;6.22;;;7.40;72.20;;;;;;5416190;26;20646;-75
2024/04/23 11:30:01;;;;;;;9.15;6.30;;;7.40;72.00;;;;;;5417846;26;20267;-75
2024/04/23 11:32:35;;;;;;;6.70;5.53;;;7.30;71.20;;;;;;5418352;26;20239;-74
2024/04/23 11:35:06;;;;;;;6.93;6.22;;;7.20;70.40;;;;;;5418719;26;20228;-74
2024/04/23 11:37:38;;;;;;;6.97;6.18;;;7.20;71.20;;;;;;5419699;26;20271;-74
2024/04/23 11:40:06;;;;;;;7.95;7.15;;;7.10;71.50;;;;;;5417460;26;20236;-79
2024/04/23 11:42:37;;;;;;;8.73;5.78;;;7.10;71.10;;;;;;5419109;26;20236;-76
2024/04/23 11:45:04;;;;;;;6.80;5.70;;;7.00;70.10;;;;;;5419888;26;20441;-74
2024/04/23 11:47:38;;;;;;;6.65;5.70;;;7.00;71.10;;;;;;5418560;26;20274;-74
2024/04/23 11:50:08;;;;;;;8.70;6.30;;;7.00;71.50;;;;;;5419823;26;20737;-75
2024/04/23 11:52:36;;;;;;;6.80;5.97;;;7.00;71.70;;;;;;5419639;26;20215;-76
2024/04/23 11:55:08;;;;;;;6.68;6.07;;;7.00;70.50;;;;;;5419752;26;20315;-75
2024/04/23 11:57:38;;;;;;;7.80;6.35;;;6.90;70.10;;;;;;5419540;26;20268;-75
2024/04/23 12:00:06;;;;;;;7.72;5.80;;;6.90;70.20;;;;;;5420147;26;20299;-75
2024/04/23 12:02:35;;;;;;;6.70;5.80;;;6.80;71.20;;;;;;5419544;26;20247;-74
2024/04/23 12:05:03;;;;;;;8.27;6.00;;;6.90;70.90;;;;;;5420107;26;20217;-76
2024/04/23 12:07:32;;;;;;;7.03;6.10;;;6.90;71.10;;;;;;5419801;26;20217;-75
2024/04/23 12:10:03;;;;;;;9.07;7.00;;;6.80;71.20;;;;;;5419307;26;20662;-75
2024/04/23 12:12:34;;;;;;;7.80;6.25;;;6.90;71.00;;;;;;5419396;26;20279;-75
2024/04/23 12:15:01;;;;;;;9.98;6.82;;;6.90;71.90;;;;;;5419269;26;20213;-75
2024/04/23 12:17:30;;;;;;;12.23;7.78;;;6.80;72.20;;;;;;5419452;26;20248;-75
2024/04/23 12:19:56;;;;;;;12.60;8.32;;;6.90;72.80;;;;;;5419533;26;20263;-75
2024/04/23 12:22:25;;;;;;;12.80;8.45;;;6.90;72.00;;;;;;5419216;26;20213;-76
2024/04/23 12:24:57;;;;;;;7.80;5.70;;;6.90;71.70;;;;;;5419715;26;20216;-75
2024/04/23 12:27:29;;;;;;;5.53;4.70;;;6.90;71.20;;;;;;5419616;26;20769;-75
2024/04/23 12:30:08;;;;;;;7.15;5.85;;;6.90;71.50;;;;;;5419365;26;20251;-75
2024/04/23 12:32:34;;;;;;;6.95;5.78;;;7.00;72.00;;;;;;5419310;26;20737;-75
2024/04/23 12:35:03;;;;;;;10.25;6.15;;;7.00;70.20;;;;;;5419080;26;20224;-75
2024/04/23 12:37:30;;;;;;;7.32;5.30;;;6.90;70.10;;;;;;5418970;26;20698;-75
2024/04/23 12:40:03;;;;;;;8.40;5.97;;;6.90;70.70;;;;;;5418840;26;20530;-76
2024/04/23 12:42:33;;;;;;;8.25;6.03;;;6.80;72.10;;;;;;5419021;26;20221;-75
2024/04/23 12:45:02;;;;;;;6.28;5.68;;;6.90;73.30;;;;;;5419270;26;20212;-74
2024/04/23 12:47:28;;;;;;;7.55;5.88;;;6.90;72.80;;;;;;5419350;26;20355;-74
2024/04/23 12:50:00;;;;;;;6.50;5.80;;;6.90;73.70;;;;;;5419052;26;20216;-75
2024/04/23 12:52:26;;;;;;;7.07;5.60;;;6.90;72.70;;;;;;5419214;26;20212;-75
2024/04/23 12:54:55;;;;;;;8.48;6.35;;;6.90;72.20;;;;;;5418639;26;20251;-75
2024/04/23 12:57:21;;;;;;;9.25;6.47;;;6.80;72.80;;;;;;5418391;26;20271;-75
2024/04/23 12:59:52;;;;;;;8.82;6.50;;;6.80;72.10;;;;;;5418777;26;20254;-75
2024/04/23 13:02:22;;;;;;;8.23;6.70;;;6.80;71.70;;;;;;5419306;26;20217;-76
2024/04/23 13:04:48;;;;;;;7.60;6.18;;;6.80;72.10;;;;;;5418636;26;20259;-76
2024/04/23 13:07:17;;;;;;;8.90;7.40;;;6.80;72.40;;;;;;5419438;26;20228;-75
2024/04/23 13:09:43;;;;;;;9.80;7.35;;;6.80;72.50;;;;;;5418631;26;20213;-75